TimeCST,TemperatureF,Dew PointF,Humidity,Sea Level PressureIn,VisibilityMPH,Wind Direction,Wind SpeedMPH,Gust SpeedMPH,PrecipitationIn,Events,Conditions,WindDirDegrees,DateUTC
12:53 AM,63.0,54.0,72,29.87,10.0,South,12.7,-,N/A,,Clear,170,2012-11-26 06:53:00
1:53 AM,62.1,55.0,78,29.87,10.0,SSE,11.5,-,N/A,,Clear,160,2012-11-26 07:53:00
2:53 AM,61.0,55.9,83,29.87,10.0,South,11.5,-,N/A,,Clear,170,2012-11-26 08:53:00
3:53 AM,61.0,55.9,83,29.87,10.0,SSE,9.2,-,N/A,,Partly Cloudy,160,2012-11-26 09:53:00
4:47 AM,60.8,57.2,88,29.88,10.0,South,9.2,-,N/A,,Mostly Cloudy,170,2012-11-26 10:47:00
4:53 AM,61.0,57.0,87,29.86,10.0,SSE,6.9,-,N/A,,Mostly Cloudy,160,2012-11-26 10:53:00
5:00 AM,60.8,57.2,88,29.88,10.0,South,9.2,-,N/A,,Overcast,170,2012-11-26 11:00:00
5:53 AM,61.0,57.9,90,29.87,10.0,South,11.5,-,N/A,,Mostly Cloudy,170,2012-11-26 11:53:00
6:53 AM,62.1,57.9,86,29.89,7.0,South,10.4,-,N/A,,Mostly Cloudy,180,2012-11-26 12:53:00
7:53 AM,62.1,57.9,86,29.91,5.0,South,6.9,-,N/A,,Mostly Cloudy,190,2012-11-26 13:53:00
8:32 AM,64.4,57.2,77,29.93,9.0,SSW,10.4,-,N/A,,Mostly Cloudy,210,2012-11-26 14:32:00
8:53 AM,64.0,57.9,80,29.93,10.0,SW,13.8,-,N/A,,Mostly Cloudy,220,2012-11-26 14:53:00
9:41 AM,66.2,57.2,73,29.95,10.0,SW,11.5,16.1,N/A,,Scattered Clouds,220,2012-11-26 15:41:00
9:53 AM,66.0,57.0,73,29.94,10.0,SW,9.2,-,N/A,,Scattered Clouds,220,2012-11-26 15:53:00
10:53 AM,69.1,57.0,65,29.93,10.0,SSW,6.9,-,N/A,,Scattered Clouds,210,2012-11-26 16:53:00
11:53 AM,72.0,55.0,55,29.93,10.0,West,9.2,-,N/A,,Scattered Clouds,260,2012-11-26 17:53:00
12:53 PM,73.0,55.0,53,29.91,10.0,West,5.8,-,N/A,,Partly Cloudy,280,2012-11-26 18:53:00
1:53 PM,73.9,48.0,40,29.91,10.0,NW,10.4,-,N/A,,Scattered Clouds,310,2012-11-26 19:53:00
2:53 PM,73.0,39.0,29,29.94,10.0,NW,16.1,-,N/A,,Scattered Clouds,310,2012-11-26 20:53:00
3:53 PM,69.1,43.0,39,29.97,10.0,NW,17.3,21.9,N/A,,Mostly Cloudy,320,2012-11-26 21:53:00
4:53 PM,66.0,46.9,50,30.02,10.0,NNW,18.4,27.6,N/A,,Mostly Cloudy,340,2012-11-26 22:53:00
5:53 PM,60.1,44.1,55,30.07,10.0,NNW,19.6,26.5,N/A,,Mostly Cloudy,330,2012-11-26 23:53:00
6:38 PM,55.4,42.8,63,30.12,10.0,NNW,24.2,32.2,N/A,,Overcast,340,2012-11-27 00:38:00
6:53 PM,55.9,41.0,57,30.12,10.0,North,23.0,29.9,N/A,,Overcast,350,2012-11-27 00:53:00
7:24 PM,53.6,39.2,58,30.14,10.0,North,20.7,31.1,N/A,,Overcast,360,2012-11-27 01:24:00
7:53 PM,52.0,37.0,57,30.15,10.0,North,19.6,28.8,N/A,,Overcast,350,2012-11-27 01:53:00
8:53 PM,51.1,36.0,56,30.17,10.0,North,20.7,29.9,N/A,,Overcast,350,2012-11-27 02:53:00
9:53 PM,50.0,34.0,54,30.19,10.0,North,19.6,31.1,N/A,,Overcast,360,2012-11-27 03:53:00
10:53 PM,48.0,34.0,58,30.25,10.0,North,16.1,24.2,N/A,,Overcast,10,2012-11-27 04:53:00
11:53 PM,48.0,33.1,56,30.26,10.0,North,11.5,-,N/A,,Mostly Cloudy,350,2012-11-27 05:53:00